sensor_id;sensor_type;location;lat;lon;timestamp;pressure;altitude;pressure_sealevel;temperature;humidity
3082;BME280;1551;51.046;7.010;2023-03-04T00:00:28;101850.56;;;5.33;69.05
3082;BME280;1551;51.046;7.010;2023-03-04T00:03:17;101849.72;;;5.33;69.83
3082;BME280;1551;51.046;7.010;2023-03-04T00:06:06;101854.63;;;5.27;70.49
3082;BME280;1551;51.046;7.010;2023-03-04T00:08:56;101848.84;;;5.32;70.33
3082;BME280;1551;51.046;7.010;2023-03-04T00:11:45;101845.97;;;5.20;70.93
3082;BME280;1551;51.046;7.010;2023-03-04T00:14:34;101843.47;;;5.22;70.94
3082;BME280;1551;51.046;7.010;2023-03-04T00:17:23;101836.00;;;5.28;71.00
3082;BME280;1551;51.046;7.010;2023-03-04T00:20:12;101846.09;;;5.25;70.22
3082;BME280;1551;51.046;7.010;2023-03-04T00:23:01;101847.28;;;5.36;70.17
3082;BME280;1551;51.046;7.010;2023-03-04T00:25:50;101833.03;;;5.41;69.94
3082;BME280;1551;51.046;7.010;2023-03-04T00:28:39;101840.25;;;5.27;70.17
3082;BME280;1551;51.046;7.010;2023-03-04T00:31:28;101840.47;;;5.35;70.40
3082;BME280;1551;51.046;7.010;2023-03-04T00:34:17;101841.56;;;5.43;70.72
3082;BME280;1551;51.046;7.010;2023-03-04T00:37:06;101837.38;;;5.45;70.68
3082;BME280;1551;51.046;7.010;2023-03-04T00:39:56;101841.19;;;5.31;70.44
3082;BME280;1551;51.046;7.010;2023-03-04T00:42:45;101835.38;;;5.35;71.21
3082;BME280;1551;51.046;7.010;2023-03-04T00:45:34;101830.41;;;5.38;70.53
3082;BME280;1551;51.046;7.010;2023-03-04T00:48:23;101827.84;;;5.36;71.31
3082;BME280;1551;51.046;7.010;2023-03-04T00:51:12;101826.31;;;5.43;71.24
3082;BME280;1551;51.046;7.010;2023-03-04T00:54:01;101823.78;;;5.43;70.42
3082;BME280;1551;51.046;7.010;2023-03-04T00:56:50;101818.44;;;5.34;70.46
3082;BME280;1551;51.046;7.010;2023-03-04T00:59:39;101816.78;;;5.34;71.47
3082;BME280;1551;51.046;7.010;2023-03-04T01:02:28;101810.91;;;5.37;70.25
3082;BME280;1551;51.046;7.010;2023-03-04T01:05:17;101817.53;;;5.32;71.26
3082;BME280;1551;51.046;7.010;2023-03-04T01:08:07;101820.28;;;5.39;71.09
3082;BME280;1551;51.046;7.010;2023-03-04T01:10:56;101816.84;;;5.37;70.72
3082;BME280;1551;51.046;7.010;2023-03-04T01:13:45;101815.97;;;5.37;70.98
3082;BME280;1551;51.046;7.010;2023-03-04T01:16:33;101817.81;;;5.41;71.20
3082;BME280;1551;51.046;7.010;2023-03-04T01:19:22;101809.94;;;5.32;71.17
3082;BME280;1551;51.046;7.010;2023-03-04T01:22:12;101813.88;;;5.22;71.41
3082;BME280;1551;51.046;7.010;2023-03-04T01:25:04;101781.75;;;4.95;71.04
3082;BME280;1551;51.046;7.010;2023-03-04T01:27:54;101808.69;;;5.19;71.18
3082;BME280;1551;51.046;7.010;2023-03-04T01:30:43;101802.03;;;5.23;71.15
3082;BME280;1551;51.046;7.010;2023-03-04T01:33:32;101801.19;;;5.22;71.25
3082;BME280;1551;51.046;7.010;2023-03-04T01:36:21;101797.16;;;5.29;71.77
3082;BME280;1551;51.046;7.010;2023-03-04T01:39:10;101800.75;;;5.37;71.72
3082;BME280;1551;51.046;7.010;2023-03-04T01:41:59;101797.38;;;5.36;71.22
3082;BME280;1551;51.046;7.010;2023-03-04T01:44:49;101789.25;;;5.20;71.05
3082;BME280;1551;51.046;7.010;2023-03-04T01:47:38;101789.50;;;5.27;71.21
3082;BME280;1551;51.046;7.010;2023-03-04T01:50:31;101770.13;;;5.31;71.73
3082;BME280;1551;51.046;7.010;2023-03-04T01:53:24;101773.53;;;5.31;71.15
3082;BME280;1551;51.046;7.010;2023-03-04T01:56:24;101767.69;;;5.34;71.43
3082;BME280;1551;51.046;7.010;2023-03-04T01:59:19;101771.03;;;5.33;71.26
3082;BME280;1551;51.046;7.010;2023-03-04T02:02:08;101760.97;;;5.36;71.53
3082;BME280;1551;51.046;7.010;2023-03-04T02:04:58;101769.59;;;5.42;71.89
3082;BME280;1551;51.046;7.010;2023-03-04T02:07:48;101762.63;;;5.35;71.02
3082;BME280;1551;51.046;7.010;2023-03-04T02:10:38;101767.75;;;5.37;71.31
3082;BME280;1551;51.046;7.010;2023-03-04T02:13:28;101772.03;;;5.38;71.65
3082;BME280;1551;51.046;7.010;2023-03-04T02:16:18;101760.63;;;5.24;71.52
3082;BME280;1551;51.046;7.010;2023-03-04T02:19:34;101762.94;;;5.16;72.18
3082;BME280;1551;51.046;7.010;2023-03-04T02:22:28;101752.19;;;5.25;72.10
3082;BME280;1551;51.046;7.010;2023-03-04T02:25:21;101758.44;;;5.36;71.22
3082;BME280;1551;51.046;7.010;2023-03-04T02:28:12;101756.63;;;5.32;71.63
3082;BME280;1551;51.046;7.010;2023-03-04T02:31:01;101754.31;;;5.11;72.12
3082;BME280;1551;51.046;7.010;2023-03-04T02:33:53;101749.31;;;5.13;72.17
3082;BME280;1551;51.046;7.010;2023-03-04T02:36:44;101748.66;;;5.20;72.21
3082;BME280;1551;51.046;7.010;2023-03-04T02:39:38;101750.72;;;5.33;72.39
3082;BME280;1551;51.046;7.010;2023-03-04T02:42:28;101743.09;;;5.33;70.87
3082;BME280;1551;51.046;7.010;2023-03-04T02:45:48;101745.50;;;5.28;72.28
3082;BME280;1551;51.046;7.010;2023-03-04T02:48:38;101741.34;;;5.30;71.51
3082;BME280;1551;51.046;7.010;2023-03-04T02:51:27;101749.78;;;5.29;71.05
3082;BME280;1551;51.046;7.010;2023-03-04T02:54:19;101736.22;;;5.29;72.59
3082;BME280;1551;51.046;7.010;2023-03-04T02:57:10;101742.31;;;5.34;72.28
3082;BME280;1551;51.046;7.010;2023-03-04T03:00:02;101744.88;;;5.35;72.02
3082;BME280;1551;51.046;7.010;2023-03-04T03:02:51;101735.50;;;5.33;71.40
3082;BME280;1551;51.046;7.010;2023-03-04T03:05:41;101735.25;;;5.25;72.20
3082;BME280;1551;51.046;7.010;2023-03-04T03:08:30;101727.19;;;5.38;71.85
3082;BME280;1551;51.046;7.010;2023-03-04T03:11:19;101724.94;;;5.49;71.88
3082;BME280;1551;51.046;7.010;2023-03-04T03:14:08;101723.78;;;5.38;71.33
3082;BME280;1551;51.046;7.010;2023-03-04T03:16:58;101725.53;;;5.39;71.87
3082;BME280;1551;51.046;7.010;2023-03-04T03:19:47;101721.66;;;5.22;72.14
3082;BME280;1551;51.046;7.010;2023-03-04T03:22:37;101715.63;;;5.18;72.51
3082;BME280;1551;51.046;7.010;2023-03-04T03:25:26;101718.69;;;5.36;72.12
3082;BME280;1551;51.046;7.010;2023-03-04T03:28:15;101713.72;;;5.41;71.98
3082;BME280;1551;51.046;7.010;2023-03-04T03:31:04;101715.41;;;5.40;72.07
3082;BME280;1551;51.046;7.010;2023-03-04T03:33:53;101709.56;;;5.44;71.24
3082;BME280;1551;51.046;7.010;2023-03-04T03:36:43;101715.09;;;5.30;71.35
3082;BME280;1551;51.046;7.010;2023-03-04T03:39:32;101716.91;;;5.34;72.58
3082;BME280;1551;51.046;7.010;2023-03-04T03:42:21;101716.28;;;5.42;72.36
3082;BME280;1551;51.046;7.010;2023-03-04T03:45:10;101713.78;;;5.44;71.63
3082;BME280;1551;51.046;7.010;2023-03-04T03:48:00;101713.63;;;5.38;71.76
3082;BME280;1551;51.046;7.010;2023-03-04T03:50:49;101713.72;;;5.41;71.97
3082;BME280;1551;51.046;7.010;2023-03-04T03:53:38;101708.03;;;5.49;72.34
3082;BME280;1551;51.046;7.010;2023-03-04T03:56:27;101705.56;;;5.52;71.51
3082;BME280;1551;51.046;7.010;2023-03-04T03:59:16;101703.69;;;5.45;72.20
3082;BME280;1551;51.046;7.010;2023-03-04T04:02:05;101702.75;;;5.42;72.57
3082;BME280;1551;51.046;7.010;2023-03-04T04:04:54;101701.25;;;5.48;71.74
3082;BME280;1551;51.046;7.010;2023-03-04T04:07:42;101703.94;;;5.54;72.20
3082;BME280;1551;51.046;7.010;2023-03-04T04:10:32;101701.28;;;5.50;72.44
3082;BME280;1551;51.046;7.010;2023-03-04T04:13:21;101703.94;;;5.54;72.11
3082;BME280;1551;51.046;7.010;2023-03-04T04:16:10;101702.38;;;5.60;71.86
3082;BME280;1551;51.046;7.010;2023-03-04T04:18:59;101704.84;;;5.56;70.84
3082;BME280;1551;51.046;7.010;2023-03-04T04:21:48;101708.31;;;5.60;72.01
3082;BME280;1551;51.046;7.010;2023-03-04T04:24:37;101696.19;;;5.50;72.18
3082;BME280;1551;51.046;7.010;2023-03-04T04:27:26;101702.19;;;5.52;71.82
3082;BME280;1551;51.046;7.010;2023-03-04T04:30:15;101716.88;;;5.64;71.60
3082;BME280;1551;51.046;7.010;2023-03-04T04:33:05;101706.63;;;5.61;71.61
3082;BME280;1551;51.046;7.010;2023-03-04T04:35:54;101700.41;;;5.49;71.66
3082;BME280;1551;51.046;7.010;2023-03-04T04:38:43;101704.72;;;5.52;72.93
3082;BME280;1551;51.046;7.010;2023-03-04T04:41:37;101710.81;;;5.58;73.10
3082;BME280;1551;51.046;7.010;2023-03-04T04:44:27;101706.72;;;5.64;71.91
3082;BME280;1551;51.046;7.010;2023-03-04T04:47:16;101704.75;;;5.53;72.32
3082;BME280;1551;51.046;7.010;2023-03-04T04:50:05;101705.66;;;5.55;73.32
3082;BME280;1551;51.046;7.010;2023-03-04T04:52:54;101702.59;;;5.67;72.01
3082;BME280;1551;51.046;7.010;2023-03-04T04:55:43;101707.41;;;5.58;72.22
3082;BME280;1551;51.046;7.010;2023-03-04T04:58:32;101628.31;;;5.12;72.82
3082;BME280;1551;51.046;7.010;2023-03-04T05:01:21;101690.13;;;5.45;72.07
3082;BME280;1551;51.046;7.010;2023-03-04T05:04:11;101705.94;;;5.66;71.82
3082;BME280;1551;51.046;7.010;2023-03-04T05:07:00;101701.44;;;5.56;71.42
3082;BME280;1551;51.046;7.010;2023-03-04T05:09:49;101698.88;;;5.56;72.45
3082;BME280;1551;51.046;7.010;2023-03-04T05:12:38;101703.25;;;5.60;72.62
3082;BME280;1551;51.046;7.010;2023-03-04T05:15:27;101706.03;;;5.69;71.89
3082;BME280;1551;51.046;7.010;2023-03-04T05:18:16;101699.22;;;5.68;72.21
3082;BME280;1551;51.046;7.010;2023-03-04T05:21:05;101707.59;;;5.64;72.30
3082;BME280;1551;51.046;7.010;2023-03-04T05:23:55;101704.34;;;5.70;72.07
3082;BME280;1551;51.046;7.010;2023-03-04T05:26:43;101706.16;;;5.74;71.59
3082;BME280;1551;51.046;7.010;2023-03-04T05:29:32;101703.63;;;5.75;72.25
3082;BME280;1551;51.046;7.010;2023-03-04T05:32:21;101707.00;;;5.74;71.89
3082;BME280;1551;51.046;7.010;2023-03-04T05:35:11;101702.84;;;5.78;72.25
3082;BME280;1551;51.046;7.010;2023-03-04T05:38:00;101701.41;;;5.86;72.31
3082;BME280;1551;51.046;7.010;2023-03-04T05:40:55;101711.69;;;5.90;72.51
3082;BME280;1551;51.046;7.010;2023-03-04T05:43:44;101714.34;;;5.95;72.13
3082;BME280;1551;51.046;7.010;2023-03-04T05:46:33;101712.66;;;5.95;72.04
3082;BME280;1551;51.046;7.010;2023-03-04T05:49:22;101712.78;;;6.00;71.97
3082;BME280;1551;51.046;7.010;2023-03-04T05:52:11;101716.94;;;5.98;72.00
3082;BME280;1551;51.046;7.010;2023-03-04T05:55:00;101719.44;;;5.96;72.69
3082;BME280;1551;51.046;7.010;2023-03-04T05:57:49;101706.34;;;5.81;73.26
3082;BME280;1551;51.046;7.010;2023-03-04T06:00:38;101720.13;;;5.91;73.17
3082;BME280;1551;51.046;7.010;2023-03-04T06:03:28;101713.16;;;5.84;72.90
3082;BME280;1551;51.046;7.010;2023-03-04T06:06:17;101714.28;;;5.93;72.53
3082;BME280;1551;51.046;7.010;2023-03-04T06:09:06;101716.09;;;5.97;72.95
3082;BME280;1551;51.046;7.010;2023-03-04T06:11:55;101716.81;;;5.93;72.68
3082;BME280;1551;51.046;7.010;2023-03-04T06:14:44;101710.81;;;5.90;73.09
3082;BME280;1551;51.046;7.010;2023-03-04T06:17:33;101715.22;;;5.95;73.38
3082;BME280;1551;51.046;7.010;2023-03-04T06:20:22;101716.00;;;5.94;73.21
3082;BME280;1551;51.046;7.010;2023-03-04T06:23:11;101718.63;;;5.97;73.00
3082;BME280;1551;51.046;7.010;2023-03-04T06:26:01;101724.75;;;6.05;73.51
3082;BME280;1551;51.046;7.010;2023-03-04T06:28:50;101730.69;;;6.06;72.65
3082;BME280;1551;51.046;7.010;2023-03-04T06:31:39;101734.19;;;6.09;72.43
3082;BME280;1551;51.046;7.010;2023-03-04T06:34:30;101735.09;;;6.11;73.14
3082;BME280;1551;51.046;7.010;2023-03-04T06:37:19;101735.91;;;6.10;73.36
3082;BME280;1551;51.046;7.010;2023-03-04T06:40:08;101740.16;;;6.11;73.63
3082;BME280;1551;51.046;7.010;2023-03-04T06:42:58;101739.44;;;6.17;73.78
3082;BME280;1551;51.046;7.010;2023-03-04T06:45:47;101743.91;;;6.26;73.80
3082;BME280;1551;51.046;7.010;2023-03-04T06:48:37;101745.59;;;6.27;73.34
3082;BME280;1551;51.046;7.010;2023-03-04T06:51:26;101748.22;;;6.28;73.55
3082;BME280;1551;51.046;7.010;2023-03-04T06:54:15;101750.09;;;6.35;73.69
3082;BME280;1551;51.046;7.010;2023-03-04T06:57:05;101749.41;;;6.42;72.99
3082;BME280;1551;51.046;7.010;2023-03-04T06:59:54;101751.97;;;6.44;73.18
3082;BME280;1551;51.046;7.010;2023-03-04T07:02:43;101747.78;;;6.46;73.48
3082;BME280;1551;51.046;7.010;2023-03-04T07:05:32;101760.28;;;6.37;72.87
3082;BME280;1551;51.046;7.010;2023-03-04T07:08:21;101753.44;;;6.34;73.39
3082;BME280;1551;51.046;7.010;2023-03-04T07:11:10;101743.81;;;6.21;73.46
3082;BME280;1551;51.046;7.010;2023-03-04T07:14:00;101756.84;;;6.35;73.22
3082;BME280;1551;51.046;7.010;2023-03-04T07:16:49;101762.25;;;6.48;73.26
3082;BME280;1551;51.046;7.010;2023-03-04T07:19:39;101759.78;;;6.51;73.05
3082;BME280;1551;51.046;7.010;2023-03-04T07:22:29;101757.25;;;6.53;73.15
3082;BME280;1551;51.046;7.010;2023-03-04T07:25:18;101764.00;;;6.51;72.98
3082;BME280;1551;51.046;7.010;2023-03-04T07:28:07;101759.00;;;6.54;73.02
3082;BME280;1551;51.046;7.010;2023-03-04T07:30:56;101767.63;;;6.60;72.90
3082;BME280;1551;51.046;7.010;2023-03-04T07:33:45;101767.72;;;6.63;72.58
3082;BME280;1551;51.046;7.010;2023-03-04T07:36:35;101763.63;;;6.71;72.50
3082;BME280;1551;51.046;7.010;2023-03-04T07:39:24;101767.16;;;6.78;72.09
3082;BME280;1551;51.046;7.010;2023-03-04T07:42:13;101769.50;;;6.69;70.87
3082;BME280;1551;51.046;7.010;2023-03-04T07:45:05;101771.84;;;6.60;70.39
3082;BME280;1551;51.046;7.010;2023-03-04T07:47:59;101769.38;;;6.63;70.97
3082;BME280;1551;51.046;7.010;2023-03-04T07:50:48;101781.53;;;6.74;70.06
3082;BME280;1551;51.046;7.010;2023-03-04T07:53:39;101780.56;;;6.71;69.79
3082;BME280;1551;51.046;7.010;2023-03-04T07:56:31;101777.34;;;6.78;69.86
3082;BME280;1551;51.046;7.010;2023-03-04T07:59:20;101774.06;;;6.82;69.71
3082;BME280;1551;51.046;7.010;2023-03-04T08:02:10;101780.91;;;6.84;69.89
3082;BME280;1551;51.046;7.010;2023-03-04T08:04:58;101776.63;;;6.83;69.25
3082;BME280;1551;51.046;7.010;2023-03-04T08:07:47;101769.81;;;6.82;69.25
3082;BME280;1551;51.046;7.010;2023-03-04T08:10:36;101775.88;;;6.87;69.65
3082;BME280;1551;51.046;7.010;2023-03-04T08:13:27;101765.88;;;6.95;69.16
3082;BME280;1551;51.046;7.010;2023-03-04T08:16:17;101768.50;;;7.00;69.12
3082;BME280;1551;51.046;7.010;2023-03-04T08:19:06;101778.78;;;7.04;69.29
3082;BME280;1551;51.046;7.010;2023-03-04T08:21:55;101777.91;;;7.02;68.18
3082;BME280;1551;51.046;7.010;2023-03-04T08:24:44;101772.03;;;7.06;69.10
3082;BME280;1551;51.046;7.010;2023-03-04T08:27:33;101777.22;;;7.09;68.86
3082;BME280;1551;51.046;7.010;2023-03-04T08:30:22;101781.53;;;7.13;68.75
3082;BME280;1551;51.046;7.010;2023-03-04T08:33:11;101781.47;;;7.10;68.60
3082;BME280;1551;51.046;7.010;2023-03-04T08:36:00;101778.13;;;7.13;68.58
3082;BME280;1551;51.046;7.010;2023-03-04T08:38:49;101784.16;;;7.16;68.50
3082;BME280;1551;51.046;7.010;2023-03-04T08:41:39;101787.56;;;7.17;68.14
3082;BME280;1551;51.046;7.010;2023-03-04T08:44:28;101791.84;;;7.19;68.39
3082;BME280;1551;51.046;7.010;2023-03-04T08:47:17;101797.41;;;7.02;68.42
3082;BME280;1551;51.046;7.010;2023-03-04T08:50:06;101787.13;;;6.97;69.27
3082;BME280;1551;51.046;7.010;2023-03-04T08:52:57;101797.66;;;7.14;69.24
3082;BME280;1551;51.046;7.010;2023-03-04T08:55:47;101786.72;;;7.18;69.62
3082;BME280;1551;51.046;7.010;2023-03-04T08:58:36;101791.06;;;7.22;70.06
3082;BME280;1551;51.046;7.010;2023-03-04T09:01:25;101793.03;;;7.36;69.76
3082;BME280;1551;51.046;7.010;2023-03-04T09:04:14;101787.31;;;7.45;69.50
3082;BME280;1551;51.046;7.010;2023-03-04T09:07:03;101789.78;;;7.43;69.39
3082;BME280;1551;51.046;7.010;2023-03-04T09:09:52;101789.97;;;7.51;69.84
3082;BME280;1551;51.046;7.010;2023-03-04T09:12:41;101786.22;;;7.76;69.35
3082;BME280;1551;51.046;7.010;2023-03-04T09:15:30;101787.34;;;7.91;69.43
3082;BME280;1551;51.046;7.010;2023-03-04T09:18:21;101789.94;;;8.41;69.03
3082;BME280;1551;51.046;7.010;2023-03-04T09:21:11;101791.25;;;8.68;67.73
3082;BME280;1551;51.046;7.010;2023-03-04T09:24:00;101792.31;;;8.84;67.37
3082;BME280;1551;51.046;7.010;2023-03-04T09:26:50;101789.97;;;8.97;66.74
3082;BME280;1551;51.046;7.010;2023-03-04T09:29:40;101789.13;;;8.97;66.13
3082;BME280;1551;51.046;7.010;2023-03-04T09:32:32;101796.66;;;8.91;66.09
3082;BME280;1551;51.046;7.010;2023-03-04T09:35:20;101793.25;;;8.89;65.98
3082;BME280;1551;51.046;7.010;2023-03-04T09:38:09;101793.84;;;8.73;65.44
3082;BME280;1551;51.046;7.010;2023-03-04T09:41:02;101791.81;;;8.51;65.89
3082;BME280;1551;51.046;7.010;2023-03-04T09:43:53;101786.06;;;8.14;66.93
3082;BME280;1551;51.046;7.010;2023-03-04T09:46:44;101791.66;;;7.95;67.09
3082;BME280;1551;51.046;7.010;2023-03-04T09:49:37;101788.97;;;7.88;68.22
3082;BME280;1551;51.046;7.010;2023-03-04T09:52:55;101782.25;;;7.91;68.92
3082;BME280;1551;51.046;7.010;2023-03-04T09:55:49;101778.75;;;7.86;68.52
3082;BME280;1551;51.046;7.010;2023-03-04T09:59:23;101785.81;;;7.99;69.60
3082;BME280;1551;51.046;7.010;2023-03-04T10:02:43;101777.75;;;8.24;69.03
3082;BME280;1551;51.046;7.010;2023-03-04T10:05:38;101786.06;;;8.16;68.61
3082;BME280;1551;51.046;7.010;2023-03-04T10:11:45;101785.13;;;8.09;70.01
3082;BME280;1551;51.046;7.010;2023-03-04T10:14:46;101788.00;;;8.26;70.15
3082;BME280;1551;51.046;7.010;2023-03-04T10:17:44;101780.41;;;8.29;69.48
3082;BME280;1551;51.046;7.010;2023-03-04T10:20:47;101783.66;;;8.22;69.49
3082;BME280;1551;51.046;7.010;2023-03-04T10:23:39;101779.38;;;8.21;70.21
3082;BME280;1551;51.046;7.010;2023-03-04T10:26:30;101766.59;;;8.19;70.67
3082;BME280;1551;51.046;7.010;2023-03-04T10:29:22;101776.13;;;8.28;71.10
3082;BME280;1551;51.046;7.010;2023-03-04T10:32:19;101772.81;;;8.32;70.66
3082;BME280;1551;51.046;7.010;2023-03-04T10:35:11;101770.47;;;8.46;71.24
3082;BME280;1551;51.046;7.010;2023-03-04T10:38:01;101770.69;;;8.59;71.02
3082;BME280;1551;51.046;7.010;2023-03-04T10:40:51;101772.50;;;8.68;70.74
3082;BME280;1551;51.046;7.010;2023-03-04T10:43:42;101773.38;;;8.68;70.87
3082;BME280;1551;51.046;7.010;2023-03-04T10:46:41;101770.56;;;8.52;70.96
3082;BME280;1551;51.046;7.010;2023-03-04T10:49:30;101767.22;;;8.56;70.88
3082;BME280;1551;51.046;7.010;2023-03-04T10:52:31;101766.41;;;8.58;71.45
3082;BME280;1551;51.046;7.010;2023-03-04T10:55:30;101770.81;;;8.67;71.51
3082;BME280;1551;51.046;7.010;2023-03-04T10:58:30;101763.41;;;8.85;71.27
3082;BME280;1551;51.046;7.010;2023-03-04T11:01:20;101753.66;;;9.18;71.65
3082;BME280;1551;51.046;7.010;2023-03-04T11:04:16;101749.47;;;10.04;69.87
3082;BME280;1551;51.046;7.010;2023-03-04T11:07:10;101746.03;;;11.18;67.64
3082;BME280;1551;51.046;7.010;2023-03-04T11:10:10;101748.28;;;10.65;65.33
3082;BME280;1551;51.046;7.010;2023-03-04T11:13:06;101747.28;;;10.41;64.84
3082;BME280;1551;51.046;7.010;2023-03-04T11:16:02;101739.13;;;11.05;64.76
3082;BME280;1551;51.046;7.010;2023-03-04T11:18:58;101741.56;;;10.78;63.50
3082;BME280;1551;51.046;7.010;2023-03-04T11:21:48;101726.94;;;10.63;63.64
3082;BME280;1551;51.046;7.010;2023-03-04T11:24:39;101735.50;;;10.70;62.61
3082;BME280;1551;51.046;7.010;2023-03-04T11:27:41;101725.78;;;10.19;62.60
3082;BME280;1551;51.046;7.010;2023-03-04T11:30:40;101728.81;;;9.85;64.49
3082;BME280;1551;51.046;7.010;2023-03-04T11:33:42;101726.94;;;9.65;64.77
3082;BME280;1551;51.046;7.010;2023-03-04T11:37:02;101724.19;;;9.47;65.42
3082;BME280;1551;51.046;7.010;2023-03-04T11:40:04;101724.16;;;9.44;64.76
3082;BME280;1551;51.046;7.010;2023-03-04T11:43:00;101717.19;;;9.31;65.01
3082;BME280;1551;51.046;7.010;2023-03-04T11:49:46;101711.41;;;9.47;65.48
3082;BME280;1551;51.046;7.010;2023-03-04T11:52:43;101707.09;;;9.42;65.27
3082;BME280;1551;51.046;7.010;2023-03-04T11:55:40;101705.34;;;9.38;65.69
3082;BME280;1551;51.046;7.010;2023-03-04T12:07:51;101697.84;;;8.82;67.00
3082;BME280;1551;51.046;7.010;2023-03-04T12:11:02;101697.91;;;8.87;66.69
3082;BME280;1551;51.046;7.010;2023-03-04T12:17:17;101675.44;;;9.31;66.84
3082;BME280;1551;51.046;7.010;2023-03-04T12:23:28;101661.63;;;9.12;67.46
3082;BME280;1551;51.046;7.010;2023-03-04T12:29:40;101661.75;;;9.23;66.52
3082;BME280;1551;51.046;7.010;2023-03-04T12:36:02;101649.63;;;9.05;66.49
3082;BME280;1551;51.046;7.010;2023-03-04T12:39:24;101640.53;;;9.28;66.07
3082;BME280;1551;51.046;7.010;2023-03-04T12:48:38;101639.19;;;9.65;64.99
3082;BME280;1551;51.046;7.010;2023-03-04T12:51:47;101633.13;;;9.54;64.15
3082;BME280;1551;51.046;7.010;2023-03-04T12:54:44;101629.72;;;9.53;64.88
3082;BME280;1551;51.046;7.010;2023-03-04T12:57:36;101633.09;;;9.51;64.12
3082;BME280;1551;51.046;7.010;2023-03-04T13:03:46;101620.94;;;9.29;65.05
3082;BME280;1551;51.046;7.010;2023-03-04T13:10:01;101614.22;;;9.35;64.12
3082;BME280;1551;51.046;7.010;2023-03-04T13:12:57;101615.00;;;9.31;65.28
3082;BME280;1551;51.046;7.010;2023-03-04T13:16:01;101611.59;;;9.31;65.67
3082;BME280;1551;51.046;7.010;2023-03-04T13:18:50;101610.84;;;9.41;65.14
3082;BME280;1551;51.046;7.010;2023-03-04T13:21:45;101604.03;;;9.40;64.79
3082;BME280;1551;51.046;7.010;2023-03-04T13:24:47;101605.72;;;9.41;65.11
3082;BME280;1551;51.046;7.010;2023-03-04T13:28:05;101602.34;;;9.43;64.83
3082;BME280;1551;51.046;7.010;2023-03-04T13:33:52;101596.59;;;9.68;65.24
3082;BME280;1551;51.046;7.010;2023-03-04T13:36:54;101599.09;;;9.58;64.90
3082;BME280;1551;51.046;7.010;2023-03-04T13:39:43;101599.13;;;9.64;65.10
3082;BME280;1551;51.046;7.010;2023-03-04T13:42:41;101590.59;;;9.62;65.23
3082;BME280;1551;51.046;7.010;2023-03-04T13:45:35;101582.88;;;9.56;65.86
3082;BME280;1551;51.046;7.010;2023-03-04T13:48:31;101576.75;;;9.39;65.53
3082;BME280;1551;51.046;7.010;2023-03-04T13:54:29;101576.69;;;9.31;66.37
3082;BME280;1551;51.046;7.010;2023-03-04T13:57:19;101572.28;;;9.14;66.53
3082;BME280;1551;51.046;7.010;2023-03-04T14:00:12;101577.25;;;9.02;67.49
3082;BME280;1551;51.046;7.010;2023-03-04T14:03:24;101575.47;;;8.93;68.25
3082;BME280;1551;51.046;7.010;2023-03-04T14:09:34;101571.19;;;8.90;69.49
3082;BME280;1551;51.046;7.010;2023-03-04T14:12:25;101570.31;;;8.91;69.78
3082;BME280;1551;51.046;7.010;2023-03-04T14:15:21;101566.09;;;8.92;70.20
3082;BME280;1551;51.046;7.010;2023-03-04T14:18:11;101567.84;;;8.97;70.91
3082;BME280;1551;51.046;7.010;2023-03-04T14:21:00;101566.94;;;8.94;71.31
3082;BME280;1551;51.046;7.010;2023-03-04T14:24:00;101562.75;;;9.00;70.61
3082;BME280;1551;51.046;7.010;2023-03-04T14:26:49;101560.28;;;9.07;72.04
3082;BME280;1551;51.046;7.010;2023-03-04T14:29:55;101557.81;;;9.16;71.36
3082;BME280;1551;51.046;7.010;2023-03-04T14:32:44;101551.03;;;9.19;71.66
3082;BME280;1551;51.046;7.010;2023-03-04T14:35:35;101546.81;;;9.23;71.58
3082;BME280;1551;51.046;7.010;2023-03-04T14:38:30;101535.72;;;9.21;70.90
3082;BME280;1551;51.046;7.010;2023-03-04T14:41:25;101545.84;;;9.09;71.23
3082;BME280;1551;51.046;7.010;2023-03-04T14:47:32;101536.44;;;9.05;71.81
3082;BME280;1551;51.046;7.010;2023-03-04T14:50:22;101525.47;;;9.18;71.57
3082;BME280;1551;51.046;7.010;2023-03-04T14:53:17;101519.56;;;9.22;70.95
3082;BME280;1551;51.046;7.010;2023-03-04T14:56:08;101519.53;;;9.20;71.32
3082;BME280;1551;51.046;7.010;2023-03-04T14:58:58;101522.94;;;9.19;71.55
3082;BME280;1551;51.046;7.010;2023-03-04T15:01:47;101523.81;;;9.21;71.55
3082;BME280;1551;51.046;7.010;2023-03-04T15:04:39;101513.50;;;9.11;71.38
3082;BME280;1551;51.046;7.010;2023-03-04T15:07:35;101514.31;;;9.10;71.36
3082;BME280;1551;51.046;7.010;2023-03-04T15:10:28;101518.59;;;9.12;71.91
3082;BME280;1551;51.046;7.010;2023-03-04T15:16:28;101509.22;;;9.10;71.62
3082;BME280;1551;51.046;7.010;2023-03-04T15:19:37;101505.06;;;9.16;71.23
3082;BME280;1551;51.046;7.010;2023-03-04T15:22:26;101503.28;;;9.11;70.99
3082;BME280;1551;51.046;7.010;2023-03-04T15:25:15;101502.47;;;9.13;71.44
3082;BME280;1551;51.046;7.010;2023-03-04T15:28:14;101495.63;;;9.11;72.38
3082;BME280;1551;51.046;7.010;2023-03-04T15:31:04;101495.53;;;9.02;72.78
3082;BME280;1551;51.046;7.010;2023-03-04T15:33:54;101494.66;;;8.96;73.54
3082;BME280;1551;51.046;7.010;2023-03-04T15:36:45;101496.34;;;8.96;74.52
3082;BME280;1551;51.046;7.010;2023-03-04T15:39:35;101495.53;;;9.00;74.82
3082;BME280;1551;51.046;7.010;2023-03-04T15:42:24;101490.41;;;8.97;74.68
3082;BME280;1551;51.046;7.010;2023-03-04T15:45:31;101483.47;;;8.87;74.34
3082;BME280;1551;51.046;7.010;2023-03-04T15:48:23;101491.19;;;8.91;74.01
3082;BME280;1551;51.046;7.010;2023-03-04T15:51:20;101493.78;;;8.93;74.69
3082;BME280;1551;51.046;7.010;2023-03-04T15:54:11;101491.19;;;8.88;74.88
3082;BME280;1551;51.046;7.010;2023-03-04T15:57:04;101482.56;;;8.80;75.10
3082;BME280;1551;51.046;7.010;2023-03-04T15:59:54;101486.84;;;8.81;74.88
3082;BME280;1551;51.046;7.010;2023-03-04T16:02:43;101489.50;;;8.92;75.30
3082;BME280;1551;51.046;7.010;2023-03-04T16:05:36;101485.28;;;8.98;75.51
3082;BME280;1551;51.046;7.010;2023-03-04T16:08:25;101490.44;;;9.03;76.04
3082;BME280;1551;51.046;7.010;2023-03-04T16:11:20;101494.69;;;9.01;75.39
3082;BME280;1551;51.046;7.010;2023-03-04T16:14:10;101488.72;;;9.00;75.35
3082;BME280;1551;51.046;7.010;2023-03-04T16:16:59;101491.31;;;9.04;75.42
3082;BME280;1551;51.046;7.010;2023-03-04T16:19:48;101486.19;;;9.05;76.41
3082;BME280;1551;51.046;7.010;2023-03-04T16:22:37;101485.28;;;8.95;75.94
3082;BME280;1551;51.046;7.010;2023-03-04T16:25:27;101479.25;;;8.86;76.92
3082;BME280;1551;51.046;7.010;2023-03-04T16:28:16;101480.94;;;8.85;76.81
3082;BME280;1551;51.046;7.010;2023-03-04T16:31:05;101486.00;;;8.81;76.95
3082;BME280;1551;51.046;7.010;2023-03-04T16:33:55;101480.84;;;8.76;77.23